sensor_id;sensor_type;location;lat;lon;timestamp;P1;durP1;ratioP1;P2;durP2;ratioP2
20095;SDS011;10207;50.942;6.900;2023-06-01T00:01:47;9.70;;;2.80;;
20095;SDS011;10207;50.942;6.900;2023-06-01T00:04:13;10.40;;;2.78;;
20095;SDS011;10207;50.942;6.900;2023-06-01T00:06:40;5.13;;;2.08;;
20095;SDS011;10207;50.942;6.900;2023-06-01T00:09:06;9.52;;;2.67;;
20095;SDS011;10207;50.942;6.900;2023-06-01T00:11:32;8.10;;;2.58;;
20095;SDS011;10207;50.942;6.900;2023-06-01T00:13:58;8.23;;;2.88;;
20095;SDS011;10207;50.942;6.900;2023-06-01T00:16:24;7.22;;;2.35;;
20095;SDS011;10207;50.942;6.900;2023-06-01T00:18:50;9.68;;;3.15;;
20095;SDS011;10207;50.942;6.900;2023-06-01T00:21:21;6.60;;;2.65;;
20095;SDS011;10207;50.942;6.900;2023-06-01T00:23:47;5.22;;;2.65;;
20095;SDS011;10207;50.942;6.900;2023-06-01T00:26:13;6.13;;;2.60;;
20095;SDS011;10207;50.942;6.900;2023-06-01T00:28:41;5.28;;;2.60;;
20095;SDS011;10207;50.942;6.900;2023-06-01T00:31:07;4.25;;;2.33;;
20095;SDS011;10207;50.942;6.900;2023-06-01T00:33:33;7.38;;;2.70;;
20095;SDS011;10207;50.942;6.900;2023-06-01T00:35:59;4.75;;;2.40;;
20095;SDS011;10207;50.942;6.900;2023-06-01T00:38:25;7.70;;;2.55;;
20095;SDS011;10207;50.942;6.900;2023-06-01T00:40:51;6.65;;;2.50;;
20095;SDS011;10207;50.942;6.900;2023-06-01T00:43:17;8.05;;;2.20;;
20095;SDS011;10207;50.942;6.900;2023-06-01T00:45:43;11.43;;;2.58;;
20095;SDS011;10207;50.942;6.900;2023-06-01T00:48:10;4.13;;;2.10;;
20095;SDS011;10207;50.942;6.900;2023-06-01T00:50:36;6.60;;;2.67;;
20095;SDS011;10207;50.942;6.900;2023-06-01T00:53:02;8.85;;;2.22;;
20095;SDS011;10207;50.942;6.900;2023-06-01T00:55:28;5.47;;;2.40;;
20095;SDS011;10207;50.942;6.900;2023-06-01T00:57:55;5.25;;;2.47;;
20095;SDS011;10207;50.942;6.900;2023-06-01T01:00:21;5.95;;;2.40;;
20095;SDS011;10207;50.942;6.900;2023-06-01T01:02:48;8.32;;;3.20;;
20095;SDS011;10207;50.942;6.900;2023-06-01T01:05:14;7.25;;;3.08;;
20095;SDS011;10207;50.942;6.900;2023-06-01T01:12:58;3.75;;;2.35;;
20095;SDS011;10207;50.942;6.900;2023-06-01T01:18:11;7.35;;;2.70;;
20095;SDS011;10207;50.942;6.900;2023-06-01T01:20:41;6.82;;;3.22;;
20095;SDS011;10207;50.942;6.900;2023-06-01T01:23:14;8.05;;;3.00;;
20095;SDS011;10207;50.942;6.900;2023-06-01T01:28:35;4.95;;;2.20;;
20095;SDS011;10207;50.942;6.900;2023-06-01T01:31:04;7.97;;;2.65;;
20095;SDS011;10207;50.942;6.900;2023-06-01T01:33:31;7.38;;;3.20;;
20095;SDS011;10207;50.942;6.900;2023-06-01T01:35:58;5.10;;;2.30;;
20095;SDS011;10207;50.942;6.900;2023-06-01T01:38:24;9.20;;;2.95;;
20095;SDS011;10207;50.942;6.900;2023-06-01T01:40:50;6.40;;;2.40;;
20095;SDS011;10207;50.942;6.900;2023-06-01T01:43:21;8.07;;;2.85;;
20095;SDS011;10207;50.942;6.900;2023-06-01T01:45:48;7.85;;;2.65;;
20095;SDS011;10207;50.942;6.900;2023-06-01T01:48:19;5.07;;;2.92;;
20095;SDS011;10207;50.942;6.900;2023-06-01T01:50:56;7.35;;;2.95;;
20095;SDS011;10207;50.942;6.900;2023-06-01T01:53:24;8.43;;;3.40;;
20095;SDS011;10207;50.942;6.900;2023-06-01T01:55:52;7.35;;;2.70;;
20095;SDS011;10207;50.942;6.900;2023-06-01T01:58:19;6.68;;;2.80;;
20095;SDS011;10207;50.942;6.900;2023-06-01T02:00:45;7.13;;;4.00;;
20095;SDS011;10207;50.942;6.900;2023-06-01T02:03:15;8.73;;;3.13;;
20095;SDS011;10207;50.942;6.900;2023-06-01T02:05:41;8.75;;;3.50;;
20095;SDS011;10207;50.942;6.900;2023-06-01T02:08:07;8.13;;;2.90;;
20095;SDS011;10207;50.942;6.900;2023-06-01T02:10:34;7.50;;;4.38;;
20095;SDS011;10207;50.942;6.900;2023-06-01T02:13:00;7.10;;;2.65;;
20095;SDS011;10207;50.942;6.900;2023-06-01T02:15:26;7.40;;;3.08;;
20095;SDS011;10207;50.942;6.900;2023-06-01T02:17:52;5.22;;;2.92;;
20095;SDS011;10207;50.942;6.900;2023-06-01T02:20:19;4.93;;;2.92;;
20095;SDS011;10207;50.942;6.900;2023-06-01T02:22:45;7.65;;;2.65;;
20095;SDS011;10207;50.942;6.900;2023-06-01T02:25:11;9.07;;;3.03;;
20095;SDS011;10207;50.942;6.900;2023-06-01T02:27:37;6.25;;;2.75;;
20095;SDS011;10207;50.942;6.900;2023-06-01T02:30:04;7.85;;;2.85;;
20095;SDS011;10207;50.942;6.900;2023-06-01T02:32:32;7.22;;;3.17;;
20095;SDS011;10207;50.942;6.900;2023-06-01T02:34:58;10.95;;;3.15;;
20095;SDS011;10207;50.942;6.900;2023-06-01T02:37:24;4.53;;;2.60;;
20095;SDS011;10207;50.942;6.900;2023-06-01T02:39:50;9.88;;;2.95;;
20095;SDS011;10207;50.942;6.900;2023-06-01T02:42:16;5.72;;;2.88;;
20095;SDS011;10207;50.942;6.900;2023-06-01T02:44:42;7.00;;;3.05;;
20095;SDS011;10207;50.942;6.900;2023-06-01T02:47:08;8.88;;;3.28;;
20095;SDS011;10207;50.942;6.900;2023-06-01T02:49:37;5.10;;;3.22;;
20095;SDS011;10207;50.942;6.900;2023-06-01T02:52:03;9.63;;;2.85;;
20095;SDS011;10207;50.942;6.900;2023-06-01T02:54:29;7.20;;;3.00;;
20095;SDS011;10207;50.942;6.900;2023-06-01T02:56:56;5.85;;;3.03;;
20095;SDS011;10207;50.942;6.900;2023-06-01T02:59:44;9.98;;;3.72;;
20095;SDS011;10207;50.942;6.900;2023-06-01T03:02:10;9.48;;;3.45;;
20095;SDS011;10207;50.942;6.900;2023-06-01T03:04:36;10.93;;;3.45;;
20095;SDS011;10207;50.942;6.900;2023-06-01T03:07:04;10.02;;;3.30;;
20095;SDS011;10207;50.942;6.900;2023-06-01T03:09:51;7.22;;;3.08;;
20095;SDS011;10207;50.942;6.900;2023-06-01T03:12:35;7.95;;;3.50;;
20095;SDS011;10207;50.942;6.900;2023-06-01T03:15:02;7.32;;;3.08;;
20095;SDS011;10207;50.942;6.900;2023-06-01T03:17:28;7.22;;;3.22;;
20095;SDS011;10207;50.942;6.900;2023-06-01T03:19:54;6.68;;;3.47;;
20095;SDS011;10207;50.942;6.900;2023-06-01T03:22:22;12.32;;;4.05;;
20095;SDS011;10207;50.942;6.900;2023-06-01T03:24:48;8.63;;;3.63;;
20095;SDS011;10207;50.942;6.900;2023-06-01T03:27:23;10.63;;;4.20;;
20095;SDS011;10207;50.942;6.900;2023-06-01T03:29:49;6.85;;;3.60;;
20095;SDS011;10207;50.942;6.900;2023-06-01T03:32:15;6.30;;;3.33;;
20095;SDS011;10207;50.942;6.900;2023-06-01T03:34:42;9.18;;;3.50;;
20095;SDS011;10207;50.942;6.900;2023-06-01T03:37:08;7.15;;;4.35;;
20095;SDS011;10207;50.942;6.900;2023-06-01T03:39:34;8.13;;;4.07;;
20095;SDS011;10207;50.942;6.900;2023-06-01T03:42:03;14.63;;;4.28;;
20095;SDS011;10207;50.942;6.900;2023-06-01T03:44:29;16.55;;;5.18;;
20095;SDS011;10207;50.942;6.900;2023-06-01T03:46:55;14.30;;;4.72;;
20095;SDS011;10207;50.942;6.900;2023-06-01T03:49:22;9.13;;;5.15;;
20095;SDS011;10207;50.942;6.900;2023-06-01T03:51:48;12.50;;;5.38;;
20095;SDS011;10207;50.942;6.900;2023-06-01T03:54:14;16.17;;;5.47;;
20095;SDS011;10207;50.942;6.900;2023-06-01T03:56:40;10.80;;;4.97;;
20095;SDS011;10207;50.942;6.900;2023-06-01T03:59:07;10.60;;;5.32;;
20095;SDS011;10207;50.942;6.900;2023-06-01T04:01:33;11.68;;;5.60;;
20095;SDS011;10207;50.942;6.900;2023-06-01T04:03:59;9.45;;;5.97;;
20095;SDS011;10207;50.942;6.900;2023-06-01T04:06:25;14.70;;;6.13;;
20095;SDS011;10207;50.942;6.900;2023-06-01T04:08:55;10.68;;;5.95;;
20095;SDS011;10207;50.942;6.900;2023-06-01T04:11:24;12.07;;;5.97;;
20095;SDS011;10207;50.942;6.900;2023-06-01T04:13:52;16.95;;;6.20;;
20095;SDS011;10207;50.942;6.900;2023-06-01T04:16:19;14.73;;;6.47;;
20095;SDS011;10207;50.942;6.900;2023-06-01T04:18:46;17.17;;;6.93;;
20095;SDS011;10207;50.942;6.900;2023-06-01T04:21:24;17.80;;;6.68;;
20095;SDS011;10207;50.942;6.900;2023-06-01T04:23:51;14.15;;;7.05;;
20095;SDS011;10207;50.942;6.900;2023-06-01T04:26:19;17.05;;;7.18;;
20095;SDS011;10207;50.942;6.900;2023-06-01T04:28:45;15.50;;;7.25;;
20095;SDS011;10207;50.942;6.900;2023-06-01T04:31:12;13.82;;;7.53;;
20095;SDS011;10207;50.942;6.900;2023-06-01T04:33:46;15.02;;;7.45;;
20095;SDS011;10207;50.942;6.900;2023-06-01T04:36:18;13.20;;;7.15;;
20095;SDS011;10207;50.942;6.900;2023-06-01T04:38:47;13.88;;;7.60;;
20095;SDS011;10207;50.942;6.900;2023-06-01T04:41:17;15.77;;;7.15;;
20095;SDS011;10207;50.942;6.900;2023-06-01T04:43:43;12.00;;;7.53;;
20095;SDS011;10207;50.942;6.900;2023-06-01T04:46:09;19.65;;;8.65;;
20095;SDS011;10207;50.942;6.900;2023-06-01T04:48:35;18.33;;;9.23;;
20095;SDS011;10207;50.942;6.900;2023-06-01T04:51:03;14.80;;;8.40;;
20095;SDS011;10207;50.942;6.900;2023-06-01T04:53:30;13.50;;;8.15;;
20095;SDS011;10207;50.942;6.900;2023-06-01T04:55:56;16.33;;;9.27;;
20095;SDS011;10207;50.942;6.900;2023-06-01T04:58:22;23.92;;;10.07;;
20095;SDS011;10207;50.942;6.900;2023-06-01T05:00:48;15.00;;;7.38;;
20095;SDS011;10207;50.942;6.900;2023-06-01T05:03:15;17.23;;;9.02;;
20095;SDS011;10207;50.942;6.900;2023-06-01T05:05:41;17.58;;;10.80;;
20095;SDS011;10207;50.942;6.900;2023-06-01T05:08:07;19.75;;;9.20;;
20095;SDS011;10207;50.942;6.900;2023-06-01T05:10:34;17.77;;;10.00;;
20095;SDS011;10207;50.942;6.900;2023-06-01T05:12:59;20.17;;;10.25;;
20095;SDS011;10207;50.942;6.900;2023-06-01T05:15:26;21.27;;;10.38;;
20095;SDS011;10207;50.942;6.900;2023-06-01T05:17:54;23.50;;;10.45;;
20095;SDS011;10207;50.942;6.900;2023-06-01T05:20:21;27.80;;;11.70;;
20095;SDS011;10207;50.942;6.900;2023-06-01T05:22:55;23.13;;;11.98;;
20095;SDS011;10207;50.942;6.900;2023-06-01T05:25:21;21.92;;;11.65;;
20095;SDS011;10207;50.942;6.900;2023-06-01T05:27:47;19.40;;;8.93;;
20095;SDS011;10207;50.942;6.900;2023-06-01T05:30:13;24.15;;;12.30;;
20095;SDS011;10207;50.942;6.900;2023-06-01T05:32:39;26.92;;;12.82;;
20095;SDS011;10207;50.942;6.900;2023-06-01T05:35:10;22.90;;;12.07;;
20095;SDS011;10207;50.942;6.900;2023-06-01T05:37:36;26.63;;;12.40;;
20095;SDS011;10207;50.942;6.900;2023-06-01T05:40:02;21.65;;;12.90;;
20095;SDS011;10207;50.942;6.900;2023-06-01T05:42:33;29.70;;;14.40;;
20095;SDS011;10207;50.942;6.900;2023-06-01T05:44:59;28.33;;;14.35;;
20095;SDS011;10207;50.942;6.900;2023-06-01T05:47:25;24.40;;;12.77;;
20095;SDS011;10207;50.942;6.900;2023-06-01T05:49:51;36.58;;;16.75;;
20095;SDS011;10207;50.942;6.900;2023-06-01T05:52:17;31.02;;;15.68;;
20095;SDS011;10207;50.942;6.900;2023-06-01T05:54:43;31.15;;;13.18;;
20095;SDS011;10207;50.942;6.900;2023-06-01T05:57:09;26.50;;;14.35;;
20095;SDS011;10207;50.942;6.900;2023-06-01T05:59:35;24.55;;;14.40;;
20095;SDS011;10207;50.942;6.900;2023-06-01T06:02:01;27.63;;;14.43;;
20095;SDS011;10207;50.942;6.900;2023-06-01T06:04:27;28.98;;;15.25;;
20095;SDS011;10207;50.942;6.900;2023-06-01T06:06:53;26.15;;;14.32;;
20095;SDS011;10207;50.942;6.900;2023-06-01T06:09:19;30.60;;;16.23;;
20095;SDS011;10207;50.942;6.900;2023-06-01T06:11:45;32.70;;;14.82;;
20095;SDS011;10207;50.942;6.900;2023-06-01T06:14:11;32.58;;;17.35;;
20095;SDS011;10207;50.942;6.900;2023-06-01T06:16:39;30.63;;;17.42;;
20095;SDS011;10207;50.942;6.900;2023-06-01T06:19:05;30.95;;;17.67;;
20095;SDS011;10207;50.942;6.900;2023-06-01T06:21:31;35.13;;;16.15;;
20095;SDS011;10207;50.942;6.900;2023-06-01T06:23:57;33.83;;;17.00;;
20095;SDS011;10207;50.942;6.900;2023-06-01T06:26:25;34.70;;;16.80;;
20095;SDS011;10207;50.942;6.900;2023-06-01T06:28:52;26.45;;;16.65;;
20095;SDS011;10207;50.942;6.900;2023-06-01T06:31:18;25.95;;;15.48;;
20095;SDS011;10207;50.942;6.900;2023-06-01T06:33:44;29.92;;;16.42;;
20095;SDS011;10207;50.942;6.900;2023-06-01T06:36:10;26.90;;;15.35;;
20095;SDS011;10207;50.942;6.900;2023-06-01T06:38:36;28.92;;;17.08;;
20095;SDS011;10207;50.942;6.900;2023-06-01T06:41:02;28.75;;;17.02;;
20095;SDS011;10207;50.942;6.900;2023-06-01T06:43:28;30.05;;;17.08;;
20095;SDS011;10207;50.942;6.900;2023-06-01T06:45:54;33.70;;;15.45;;
20095;SDS011;10207;50.942;6.900;2023-06-01T06:48:20;24.77;;;13.57;;
20095;SDS011;10207;50.942;6.900;2023-06-01T06:50:46;25.75;;;15.93;;
20095;SDS011;10207;50.942;6.900;2023-06-01T06:53:12;26.20;;;14.88;;
20095;SDS011;10207;50.942;6.900;2023-06-01T06:55:38;28.15;;;16.92;;
20095;SDS011;10207;50.942;6.900;2023-06-01T06:58:03;28.73;;;17.08;;
20095;SDS011;10207;50.942;6.900;2023-06-01T07:00:30;25.90;;;14.43;;
20095;SDS011;10207;50.942;6.900;2023-06-01T07:02:56;29.73;;;16.27;;
20095;SDS011;10207;50.942;6.900;2023-06-01T07:05:22;31.00;;;16.60;;
20095;SDS011;10207;50.942;6.900;2023-06-01T07:07:48;28.75;;;16.45;;
20095;SDS011;10207;50.942;6.900;2023-06-01T07:10:14;26.52;;;15.27;;
20095;SDS011;10207;50.942;6.900;2023-06-01T07:12:40;28.25;;;16.23;;
20095;SDS011;10207;50.942;6.900;2023-06-01T07:15:06;28.52;;;15.73;;
20095;SDS011;10207;50.942;6.900;2023-06-01T07:17:33;22.60;;;15.57;;
20095;SDS011;10207;50.942;6.900;2023-06-01T07:20:00;25.40;;;14.07;;
20095;SDS011;10207;50.942;6.900;2023-06-01T07:22:26;24.05;;;15.23;;
20095;SDS011;10207;50.942;6.900;2023-06-01T07:24:52;18.70;;;11.73;;
20095;SDS011;10207;50.942;6.900;2023-06-01T07:27:18;24.20;;;13.15;;
20095;SDS011;10207;50.942;6.900;2023-06-01T07:29:46;26.08;;;15.57;;
20095;SDS011;10207;50.942;6.900;2023-06-01T07:32:12;25.50;;;14.80;;
20095;SDS011;10207;50.942;6.900;2023-06-01T07:34:38;23.02;;;13.65;;
20095;SDS011;10207;50.942;6.900;2023-06-01T07:37:04;27.10;;;14.93;;
20095;SDS011;10207;50.942;6.900;2023-06-01T07:39:30;24.48;;;14.98;;
20095;SDS011;10207;50.942;6.900;2023-06-01T07:41:56;28.05;;;15.60;;
20095;SDS011;10207;50.942;6.900;2023-06-01T07:44:22;24.95;;;14.48;;
20095;SDS011;10207;50.942;6.900;2023-06-01T07:46:50;24.17;;;14.77;;
20095;SDS011;10207;50.942;6.900;2023-06-01T07:49:17;20.38;;;12.30;;
20095;SDS011;10207;50.942;6.900;2023-06-01T07:51:43;25.95;;;14.77;;
20095;SDS011;10207;50.942;6.900;2023-06-01T07:54:09;21.90;;;14.13;;
20095;SDS011;10207;50.942;6.900;2023-06-01T07:56:35;23.95;;;13.80;;
20095;SDS011;10207;50.942;6.900;2023-06-01T07:59:01;25.98;;;14.00;;
20095;SDS011;10207;50.942;6.900;2023-06-01T08:01:27;23.25;;;14.20;;
20095;SDS011;10207;50.942;6.900;2023-06-01T08:03:53;26.58;;;14.85;;
20095;SDS011;10207;50.942;6.900;2023-06-01T08:06:21;24.88;;;15.18;;
20095;SDS011;10207;50.942;6.900;2023-06-01T08:08:49;25.08;;;15.27;;
20095;SDS011;10207;50.942;6.900;2023-06-01T08:11:16;24.17;;;14.00;;
20095;SDS011;10207;50.942;6.900;2023-06-01T08:13:43;24.85;;;15.32;;
20095;SDS011;10207;50.942;6.900;2023-06-01T08:16:11;26.70;;;15.93;;
20095;SDS011;10207;50.942;6.900;2023-06-01T08:18:39;34.28;;;18.90;;
20095;SDS011;10207;50.942;6.900;2023-06-01T08:21:05;20.38;;;12.30;;
20095;SDS011;10207;50.942;6.900;2023-06-01T08:23:31;23.88;;;12.75;;
20095;SDS011;10207;50.942;6.900;2023-06-01T08:25:57;22.77;;;15.00;;
20095;SDS011;10207;50.942;6.900;2023-06-01T08:28:22;25.25;;;15.68;;
20095;SDS011;10207;50.942;6.900;2023-06-01T08:30:48;23.50;;;14.90;;
20095;SDS011;10207;50.942;6.900;2023-06-01T08:33:14;23.90;;;14.23;;
20095;SDS011;10207;50.942;6.900;2023-06-01T08:35:41;25.00;;;15.05;;
20095;SDS011;10207;50.942;6.900;2023-06-01T08:38:06;28.90;;;15.98;;
20095;SDS011;10207;50.942;6.900;2023-06-01T08:40:32;28.33;;;15.45;;
20095;SDS011;10207;50.942;6.900;2023-06-01T08:42:59;24.77;;;14.40;;
20095;SDS011;10207;50.942;6.900;2023-06-01T08:45:31;23.38;;;14.27;;
20095;SDS011;10207;50.942;6.900;2023-06-01T08:47:57;23.02;;;13.73;;
20095;SDS011;10207;50.942;6.900;2023-06-01T08:50:23;21.70;;;14.25;;
20095;SDS011;10207;50.942;6.900;2023-06-01T08:52:55;19.67;;;12.18;;
20095;SDS011;10207;50.942;6.900;2023-06-01T08:55:21;22.98;;;14.48;;
20095;SDS011;10207;50.942;6.900;2023-06-01T08:57:48;23.60;;;15.02;;
20095;SDS011;10207;50.942;6.900;2023-06-01T09:00:14;22.92;;;14.88;;
20095;SDS011;10207;50.942;6.900;2023-06-01T09:02:41;25.15;;;13.85;;
20095;SDS011;10207;50.942;6.900;2023-06-01T09:05:08;21.50;;;14.32;;
20095;SDS011;10207;50.942;6.900;2023-06-01T09:07:34;21.73;;;13.23;;
20095;SDS011;10207;50.942;6.900;2023-06-01T09:10:00;19.38;;;11.77;;
20095;SDS011;10207;50.942;6.900;2023-06-01T09:12:27;23.35;;;11.68;;
20095;SDS011;10207;50.942;6.900;2023-06-01T09:15:10;22.42;;;11.90;;
20095;SDS011;10207;50.942;6.900;2023-06-01T09:17:37;21.20;;;11.75;;
20095;SDS011;10207;50.942;6.900;2023-06-01T09:20:04;18.50;;;11.05;;
20095;SDS011;10207;50.942;6.900;2023-06-01T09:22:37;26.98;;;13.07;;
20095;SDS011;10207;50.942;6.900;2023-06-01T09:25:04;18.27;;;11.90;;
20095;SDS011;10207;50.942;6.900;2023-06-01T09:27:30;21.80;;;12.15;;
20095;SDS011;10207;50.942;6.900;2023-06-01T09:30:07;18.05;;;11.90;;
20095;SDS011;10207;50.942;6.900;2023-06-01T09:32:33;20.92;;;12.00;;
20095;SDS011;10207;50.942;6.900;2023-06-01T09:34:59;20.05;;;13.02;;
20095;SDS011;10207;50.942;6.900;2023-06-01T09:37:25;17.92;;;11.05;;
20095;SDS011;10207;50.942;6.900;2023-06-01T09:39:51;16.98;;;10.90;;
20095;SDS011;10207;50.942;6.900;2023-06-01T09:42:17;16.10;;;10.60;;
20095;SDS011;10207;50.942;6.900;2023-06-01T09:44:44;19.20;;;12.05;;
20095;SDS011;10207;50.942;6.900;2023-06-01T09:47:11;17.63;;;10.80;;
20095;SDS011;10207;50.942;6.900;2023-06-01T09:49:39;18.17;;;10.93;;
20095;SDS011;10207;50.942;6.900;2023-06-01T09:54:32;17.48;;;10.65;;
20095;SDS011;10207;50.942;6.900;2023-06-01T09:56:59;14.25;;;10.15;;
20095;SDS011;10207;50.942;6.900;2023-06-01T09:59:25;16.90;;;10.38;;
20095;SDS011;10207;50.942;6.900;2023-06-01T10:01:54;19.38;;;12.35;;
20095;SDS011;10207;50.942;6.900;2023-06-01T10:04:24;20.35;;;10.68;;
20095;SDS011;10207;50.942;6.900;2023-06-01T10:06:52;17.10;;;10.85;;
20095;SDS011;10207;50.942;6.900;2023-06-01T10:09:19;19.15;;;10.95;;
20095;SDS011;10207;50.942;6.900;2023-06-01T10:11:47;18.85;;;12.82;;
20095;SDS011;10207;50.942;6.900;2023-06-01T10:14:14;16.00;;;10.55;;
20095;SDS011;10207;50.942;6.900;2023-06-01T10:16:41;21.00;;;12.40;;
20095;SDS011;10207;50.942;6.900;2023-06-01T10:19:07;21.48;;;11.73;;
20095;SDS011;10207;50.942;6.900;2023-06-01T10:21:33;17.02;;;10.70;;
20095;SDS011;10207;50.942;6.900;2023-06-01T10:23:59;19.15;;;11.10;;
20095;SDS011;10207;50.942;6.900;2023-06-01T10:26:25;17.13;;;12.23;;
20095;SDS011;10207;50.942;6.900;2023-06-01T10:28:52;19.67;;;12.02;;
20095;SDS011;10207;50.942;6.900;2023-06-01T10:31:38;18.35;;;12.00;;
20095;SDS011;10207;50.942;6.900;2023-06-01T10:34:05;21.92;;;12.10;;
20095;SDS011;10207;50.942;6.900;2023-06-01T10:39:29;18.08;;;12.07;;
20095;SDS011;10207;50.942;6.900;2023-06-01T10:41:56;23.45;;;12.50;;
20095;SDS011;10207;50.942;6.900;2023-06-01T10:47:49;18.55;;;12.88;;
20095;SDS011;10207;50.942;6.900;2023-06-01T10:52:25;17.00;;;11.68;;
20095;SDS011;10207;50.942;6.900;2023-06-01T10:57:30;20.27;;;13.25;;
20095;SDS011;10207;50.942;6.900;2023-06-01T11:07:57;24.90;;;13.25;;
20095;SDS011;10207;50.942;6.900;2023-06-01T11:10:53;24.58;;;16.40;;
20095;SDS011;10207;50.942;6.900;2023-06-01T11:13:14;27.50;;;17.50;;
20095;SDS011;10207;50.942;6.900;2023-06-01T11:18:49;25.70;;;17.83;;
20095;SDS011;10207;50.942;6.900;2023-06-01T11:23:42;28.65;;;18.40;;
20095;SDS011;10207;50.942;6.900;2023-06-01T11:26:08;29.58;;;20.48;;
20095;SDS011;10207;50.942;6.900;2023-06-01T11:28:34;28.45;;;18.35;;
20095;SDS011;10207;50.942;6.900;2023-06-01T11:31:01;28.15;;;19.08;;
20095;SDS011;10207;50.942;6.900;2023-06-01T11:33:30;27.80;;;18.48;;
20095;SDS011;10207;50.942;6.900;2023-06-01T11:36:00;31.25;;;21.48;;
20095;SDS011;10207;50.942;6.900;2023-06-01T11:41:02;31.55;;;19.60;;
20095;SDS011;10207;50.942;6.900;2023-06-01T11:43:29;25.95;;;17.52;;
20095;SDS011;10207;50.942;6.900;2023-06-01T11:46:07;27.02;;;20.02;;
20095;SDS011;10207;50.942;6.900;2023-06-01T11:48:33;28.55;;;17.98;;
20095;SDS011;10207;50.942;6.900;2023-06-01T11:51:00;27.92;;;19.23;;
20095;SDS011;10207;50.942;6.900;2023-06-01T11:53:26;29.38;;;19.00;;
20095;SDS011;10207;50.942;6.900;2023-06-01T11:55:53;26.90;;;18.38;;
20095;SDS011;10207;50.942;6.900;2023-06-01T11:58:26;24.85;;;16.95;;
20095;SDS011;10207;50.942;6.900;2023-06-01T12:00:53;25.38;;;16.58;;
20095;SDS011;10207;50.942;6.900;2023-06-01T12:03:18;25.00;;;14.20;;
20095;SDS011;10207;50.942;6.900;2023-06-01T12:05:45;22.20;;;13.45;;
20095;SDS011;10207;50.942;6.900;2023-06-01T12:08:23;22.88;;;13.57;;
20095;SDS011;10207;50.942;6.900;2023-06-01T12:10:50;23.30;;;14.93;;
20095;SDS011;10207;50.942;6.900;2023-06-01T12:13:17;22.83;;;15.20;;
20095;SDS011;10207;50.942;6.900;2023-06-01T12:15:43;20.73;;;13.73;;
20095;SDS011;10207;50.942;6.900;2023-06-01T12:18:09;20.25;;;12.05;;
20095;SDS011;10207;50.942;6.900;2023-06-01T12:20:36;17.08;;;11.65;;
20095;SDS011;10207;50.942;6.900;2023-06-01T12:23:12;21.83;;;12.98;;
20095;SDS011;10207;50.942;6.900;2023-06-01T12:25:48;18.50;;;12.73;;
20095;SDS011;10207;50.942;6.900;2023-06-01T12:28:15;23.27;;;14.57;;
20095;SDS011;10207;50.942;6.900;2023-06-01T12:30:43;20.60;;;12.20;;
20095;SDS011;10207;50.942;6.900;2023-06-01T12:33:23;19.13;;;11.35;;
20095;SDS011;10207;50.942;6.900;2023-06-01T12:35:55;22.80;;;11.95;;
20095;SDS011;10207;50.942;6.900;2023-06-01T12:38:21;20.30;;;11.55;;
20095;SDS011;10207;50.942;6.900;2023-06-01T12:40:50;19.70;;;10.65;;
20095;SDS011;10207;50.942;6.900;2023-06-01T12:43:30;19.42;;;10.02;;
20095;SDS011;10207;50.942;6.900;2023-06-01T12:45:57;16.45;;;10.27;;
20095;SDS011;10207;50.942;6.900;2023-06-01T12:48:29;17.15;;;9.00;;
20095;SDS011;10207;50.942;6.900;2023-06-01T12:50:55;18.50;;;8.60;;
20095;SDS011;10207;50.942;6.900;2023-06-01T12:53:21;15.13;;;8.57;;
20095;SDS011;10207;50.942;6.900;2023-06-01T12:55:47;15.57;;;8.48;;
20095;SDS011;10207;50.942;6.900;2023-06-01T12:58:13;16.80;;;9.60;;
20095;SDS011;10207;50.942;6.900;2023-06-01T13:00:39;18.60;;;9.40;;
20095;SDS011;10207;50.942;6.900;2023-06-01T13:03:05;16.73;;;9.13;;
20095;SDS011;10207;50.942;6.900;2023-06-01T13:05:32;20.70;;;8.50;;
20095;SDS011;10207;50.942;6.900;2023-06-01T13:07:58;12.57;;;8.32;;
20095;SDS011;10207;50.942;6.900;2023-06-01T13:10:25;16.55;;;9.07;;
20095;SDS011;10207;50.942;6.900;2023-06-01T13:12:52;15.63;;;7.20;;
20095;SDS011;10207;50.942;6.900;2023-06-01T13:15:18;17.42;;;8.07;;
20095;SDS011;10207;50.942;6.900;2023-06-01T13:17:44;16.70;;;7.15;;
20095;SDS011;10207;50.942;6.900;2023-06-01T13:20:10;17.88;;;7.80;;
20095;SDS011;10207;50.942;6.900;2023-06-01T13:22:37;20.83;;;8.15;;
20095;SDS011;10207;50.942;6.900;2023-06-01T13:25:04;18.25;;;7.00;;
20095;SDS011;10207;50.942;6.900;2023-06-01T13:27:30;14.13;;;7.13;;
20095;SDS011;10207;50.942;6.900;2023-06-01T13:29:56;13.15;;;7.30;;
20095;SDS011;10207;50.942;6.900;2023-06-01T13:32:22;15.00;;;6.80;;
20095;SDS011;10207;50.942;6.900;2023-06-01T13:34:48;15.57;;;5.85;;
20095;SDS011;10207;50.942;6.900;2023-06-01T13:37:14;13.93;;;6.80;;
20095;SDS011;10207;50.942;6.900;2023-06-01T13:39:40;12.40;;;5.47;;
20095;SDS011;10207;50.942;6.900;2023-06-01T13:42:06;10.40;;;5.95;;
20095;SDS011;10207;50.942;6.900;2023-06-01T13:44:32;16.30;;;5.93;;
20095;SDS011;10207;50.942;6.900;2023-06-01T13:46:58;17.27;;;6.28;;
20095;SDS011;10207;50.942;6.900;2023-06-01T13:49:24;11.85;;;6.00;;
20095;SDS011;10207;50.942;6.900;2023-06-01T13:51:50;10.15;;;6.35;;
20095;SDS011;10207;50.942;6.900;2023-06-01T13:54:16;15.05;;;6.40;;
20095;SDS011;10207;50.942;6.900;2023-06-01T13:56:43;10.90;;;6.57;;
20095;SDS011;10207;50.942;6.900;2023-06-01T13:59:09;12.75;;;6.07;;
20095;SDS011;10207;50.942;6.900;2023-06-01T14:01:35;13.82;;;6.65;;
20095;SDS011;10207;50.942;6.900;2023-06-01T14:04:01;15.30;;;6.15;;
20095;SDS011;10207;50.942;6.900;2023-06-01T14:06:29;11.65;;;5.97;;
20095;SDS011;10207;50.942;6.900;2023-06-01T14:08:54;12.02;;;6.95;;
20095;SDS011;10207;50.942;6.900;2023-06-01T14:11:20;12.00;;;6.80;;
20095;SDS011;10207;50.942;6.900;2023-06-01T14:13:47;12.63;;;5.88;;
20095;SDS011;10207;50.942;6.900;2023-06-01T14:16:13;10.60;;;5.20;;
20095;SDS011;10207;50.942;6.900;2023-06-01T14:18:39;13.50;;;6.10;;
20095;SDS011;10207;50.942;6.900;2023-06-01T14:21:05;8.48;;;4.50;;
20095;SDS011;10207;50.942;6.900;2023-06-01T14:23:31;15.25;;;6.22;;
20095;SDS011;10207;50.942;6.900;2023-06-01T14:25:58;15.15;;;6.00;;
20095;SDS011;10207;50.942;6.900;2023-06-01T14:28:24;14.27;;;5.97;;
20095;SDS011;10207;50.942;6.900;2023-06-01T14:30:50;12.55;;;5.43;;
20095;SDS011;10207;50.942;6.900;2023-06-01T14:33:15;18.13;;;7.13;;
20095;SDS011;10207;50.942;6.900;2023-06-01T14:35:42;10.88;;;5.93;;
20095;SDS011;10207;50.942;6.900;2023-06-01T14:38:08;15.13;;;5.72;;
20095;SDS011;10207;50.942;6.900;2023-06-01T14:40:34;13.13;;;4.63;;
20095;SDS011;10207;50.942;6.900;2023-06-01T14:43:00;13.32;;;5.70;;
20095;SDS011;10207;50.942;6.900;2023-06-01T14:45:26;13.05;;;5.93;;
20095;SDS011;10207;50.942;6.900;2023-06-01T14:47:52;9.80;;;5.00;;
20095;SDS011;10207;50.942;6.900;2023-06-01T14:50:18;15.68;;;6.10;;
20095;SDS011;10207;50.942;6.900;2023-06-01T14:52:45;14.05;;;6.45;;
20095;SDS011;10207;50.942;6.900;2023-06-01T14:55:11;11.45;;;5.63;;
20095;SDS011;10207;50.942;6.900;2023-06-01T14:57:37;13.35;;;5.75;;
20095;SDS011;10207;50.942;6.900;2023-06-01T15:00:04;17.15;;;6.05;;
20095;SDS011;10207;50.942;6.900;2023-06-01T15:02:31;10.98;;;6.25;;
20095;SDS011;10207;50.942;6.900;2023-06-01T15:04:57;10.88;;;5.25;;
20095;SDS011;10207;50.942;6.900;2023-06-01T15:07:22;14.15;;;5.55;;
20095;SDS011;10207;50.942;6.900;2023-06-01T15:09:48;11.57;;;6.57;;
20095;SDS011;10207;50.942;6.900;2023-06-01T15:12:15;13.55;;;6.07;;